CheckWX is a tool to help pilots better visualize weather data.  It is not intended as a substitute for an official pre-flight weather briefing.

05:37:55 UTC

LIVO METAR
Tarvisio Airport
Tarvisio, Italy
Current

12 hours ago

LIVO 031755Z 36002KT 9999 SCT030 18/14 Q1017 RMK BKN BKN200 VIS MIN 9999
Observed
Jul-3 @ 17:55 UTC
Wind
  • 360° at 2 KTS
Visibility
10,000+ meters
Flight Rules
VFR
Cloud Levels
  • Scattered at 3,000' AGL
Temperature
18°C / 64°F
Dewpoint
14°C / 57°F
Humidity
78%
Altimeter
30.03" Hg
Pressure
1016.92 hPa
Previous

13 hours ago

LIVO 031655Z 03002KT 9999 FEW020 19/13 Q1017 RMK BKN BKN200 VIS MIN 9999
Observed
Jul-3 @ 16:55 UTC
Wind
  • 030° at 2 KTS
Visibility
10,000+ meters
Flight Rules
VFR
Cloud Levels
  • Few at 2,000' AGL
Temperature
19°C / 66°F
Dewpoint
13°C / 55°F
Humidity
68%
Altimeter
30.03" Hg
Pressure
1016.92 hPa
Previous

14 hours ago

LIVO 031555Z 03005KT 9999 SCT025 19/13 Q1017 RMK BKN BKN200 VIS MIN 9999
Observed
Jul-3 @ 15:55 UTC
Wind
  • 030° at 5 KTS
Visibility
10,000+ meters
Flight Rules
VFR
Cloud Levels
  • Scattered at 2,500' AGL
Temperature
19°C / 66°F
Dewpoint
13°C / 55°F
Humidity
68%
Altimeter
30.03" Hg
Pressure
1016.92 hPa